createdAt,value
2023-01-07T00:01:17.551Z,96.60
2023-01-07T00:03:54.755Z,96.60
2023-01-07T00:06:39.199Z,96.60
2023-01-07T00:09:31.195Z,96.60
2023-01-07T00:12:05.050Z,96.60
2023-01-07T00:14:31.763Z,96.60
2023-01-07T00:16:58.571Z,96.60
2023-01-07T00:19:25.411Z,96.60
2023-01-07T00:21:52.167Z,96.60
2023-01-07T00:24:19.001Z,96.60
2023-01-07T00:26:45.765Z,96.60
2023-01-07T00:29:12.967Z,96.60
2023-01-07T00:31:41.169Z,96.60
2023-01-07T00:34:10.113Z,96.60
2023-01-07T00:36:41.865Z,96.60
2023-01-07T00:39:20.996Z,96.60
2023-01-07T00:42:07.215Z,96.60
2023-01-07T00:44:34.406Z,96.60
2023-01-07T00:47:01.747Z,96.60
2023-01-07T00:49:29.069Z,96.60
2023-01-07T00:51:56.120Z,96.60
2023-01-07T00:54:24.122Z,96.60
2023-01-07T00:56:50.991Z,96.60
2023-01-07T00:59:18.831Z,96.60
2023-01-07T01:01:46.083Z,96.60
2023-01-07T01:04:13.627Z,96.60
2023-01-07T01:06:44.315Z,96.60
2023-01-07T01:09:12.209Z,96.60
2023-01-07T01:11:39.213Z,96.60
2023-01-07T01:14:06.018Z,96.60
2023-01-07T01:16:32.846Z,96.60
2023-01-07T01:18:59.601Z,96.60
2023-01-07T01:21:26.367Z,96.60
2023-01-07T01:23:53.376Z,96.60
2023-01-07T01:26:20.279Z,96.60
2023-01-07T01:28:53.907Z,96.60
2023-01-07T01:31:23.762Z,96.60
2023-01-07T01:33:56.429Z,96.60
2023-01-07T01:36:23.913Z,96.60
2023-01-07T01:38:52.396Z,96.60
2023-01-07T01:41:19.214Z,96.60
2023-01-07T01:43:48.832Z,96.60
2023-01-07T01:46:38.035Z,96.60
2023-01-07T01:49:16.685Z,96.60
2023-01-07T01:51:50.064Z,96.60
2023-01-07T01:54:19.997Z,96.60
2023-01-07T01:56:53.246Z,96.60
2023-01-07T01:59:26.767Z,96.60
2023-01-07T02:01:56.188Z,96.60
2023-01-07T02:04:25.218Z,96.60
2023-01-07T02:07:05.116Z,96.60
2023-01-07T02:09:42.628Z,96.60
2023-01-07T02:12:21.257Z,96.60
2023-01-07T02:15:06.748Z,96.60
2023-01-07T02:17:58.309Z,96.60
2023-01-07T02:21:13.341Z,96.60
2023-01-07T02:24:15.745Z,96.60
2023-01-07T02:27:05.057Z,96.60
2023-01-07T02:30:00.140Z,96.60
2023-01-07T02:32:29.983Z,96.60
2023-01-07T02:35:16.741Z,96.60
2023-01-07T02:37:59.570Z,96.60
2023-01-07T02:40:51.296Z,96.60
2023-01-07T02:43:56.573Z,96.60
2023-01-07T02:46:44.552Z,96.60
2023-01-07T02:49:15.740Z,96.60
2023-01-07T02:51:44.403Z,96.60
2023-01-07T02:54:23.955Z,96.60
2023-01-07T02:57:24.308Z,96.60
2023-01-07T03:00:26.308Z,96.60
2023-01-07T03:03:37.810Z,96.60
2023-01-07T03:06:35.541Z,96.60
2023-01-07T03:09:26.853Z,96.60
2023-01-07T03:12:23.595Z,96.60
2023-01-07T03:15:11.563Z,96.60
2023-01-07T03:17:51.813Z,96.60
2023-01-07T03:20:21.769Z,96.60
2023-01-07T03:22:49.803Z,96.60
2023-01-07T03:25:20.295Z,96.60
2023-01-07T03:27:50.649Z,96.60
2023-01-07T03:30:19.504Z,96.60
2023-01-07T03:33:01.017Z,96.60
2023-01-07T03:35:30.296Z,96.60
2023-01-07T03:38:00.382Z,96.60
2023-01-07T03:40:34.987Z,96.60
2023-01-07T03:43:04.228Z,96.60
2023-01-07T03:45:31.506Z,96.60
2023-01-07T03:48:00.305Z,96.60
2023-01-07T03:50:34.247Z,96.60
2023-01-07T03:53:01.449Z,96.60
2023-01-07T03:55:29.842Z,96.60
2023-01-07T03:57:58.101Z,96.60
2023-01-07T04:00:26.182Z,96.60
2023-01-07T04:02:59.828Z,96.60
2023-01-07T04:05:30.847Z,96.60
2023-01-07T04:07:58.320Z,96.60
2023-01-07T04:10:28.464Z,96.60
2023-01-07T04:12:55.231Z,96.60
2023-01-07T04:15:22.587Z,96.60
2023-01-07T04:17:50.407Z,96.60
2023-01-07T04:20:18.228Z,96.60
2023-01-07T04:22:44.986Z,96.60
2023-01-07T04:25:11.941Z,96.60
2023-01-07T04:27:39.087Z,96.60
2023-01-07T04:30:06.461Z,96.60
2023-01-07T04:32:34.335Z,96.60
2023-01-07T04:35:01.481Z,96.60
2023-01-07T04:37:29.457Z,96.60
2023-01-07T04:39:56.969Z,96.60
2023-01-07T04:42:23.896Z,96.60
2023-01-07T04:44:50.803Z,96.60
2023-01-07T04:47:17.600Z,96.60
2023-01-07T04:49:45.183Z,96.60
2023-01-07T04:52:12.291Z,96.60
2023-01-07T04:54:44.838Z,96.60
2023-01-07T04:57:12.657Z,96.60
2023-01-07T04:59:39.528Z,96.60
2023-01-07T05:02:06.550Z,96.60
2023-01-07T05:04:33.481Z,96.60
2023-01-07T05:07:04.969Z,96.60
2023-01-07T05:09:32.111Z,96.60
2023-01-07T05:11:59.442Z,96.60
2023-01-07T05:14:26.515Z,96.60
2023-01-07T05:16:54.550Z,96.60
2023-01-07T05:19:21.897Z,96.60
2023-01-07T05:21:49.503Z,96.60
2023-01-07T05:24:17.338Z,96.60
2023-01-07T05:26:45.282Z,96.60
2023-01-07T05:29:12.814Z,96.60
2023-01-07T05:31:42.003Z,96.60
2023-01-07T05:34:10.446Z,96.60
2023-01-07T05:36:38.128Z,96.60
2023-01-07T05:39:05.625Z,96.60
2023-01-07T05:41:33.520Z,96.60
2023-01-07T05:44:00.499Z,96.60
2023-01-07T05:46:27.354Z,96.60
2023-01-07T05:48:55.528Z,96.60
2023-01-07T05:51:22.367Z,96.60
2023-01-07T05:53:49.121Z,96.60
2023-01-07T05:56:26.284Z,96.60
2023-01-07T05:58:53.016Z,96.60
2023-01-07T06:01:19.821Z,96.60
2023-01-07T06:03:46.712Z,96.60
2023-01-07T06:06:13.576Z,96.60
2023-01-07T06:08:40.320Z,96.60
2023-01-07T06:11:08.031Z,96.60
2023-01-07T06:13:35.510Z,96.60
2023-01-07T06:16:04.596Z,96.60
2023-01-07T06:18:31.558Z,96.60
2023-01-07T06:20:58.367Z,96.60
2023-01-07T06:23:25.075Z,96.60
2023-01-07T06:25:51.826Z,96.60
2023-01-07T06:28:19.396Z,96.60
2023-01-07T06:30:46.982Z,96.60
2023-01-07T06:33:14.905Z,96.60
2023-01-07T06:35:41.626Z,96.60
2023-01-07T06:38:08.483Z,96.60
2023-01-07T06:40:35.206Z,96.60
2023-01-07T06:43:02.011Z,96.60
2023-01-07T06:45:28.866Z,96.60
2023-01-07T06:47:57.286Z,96.60
2023-01-07T06:50:24.386Z,96.60
2023-01-07T06:52:51.312Z,96.60
2023-01-07T06:55:18.130Z,96.60
2023-01-07T06:57:44.979Z,96.60
2023-01-07T07:00:12.668Z,96.60
2023-01-07T07:02:39.507Z,96.60
2023-01-07T07:05:06.543Z,96.60
2023-01-07T07:07:33.477Z,96.60
2023-01-07T07:10:04.531Z,96.60
2023-01-07T07:12:31.216Z,96.60
2023-01-07T07:14:57.969Z,96.60
2023-01-07T07:17:24.929Z,96.60
2023-01-07T07:19:51.700Z,96.60
2023-01-07T07:22:18.577Z,96.60
2023-01-07T07:24:45.336Z,96.60
2023-01-07T07:27:12.083Z,96.60
2023-01-07T07:29:38.811Z,96.60
2023-01-07T07:32:05.895Z,96.60
2023-01-07T07:34:34.670Z,96.60
2023-01-07T07:37:02.835Z,96.60
2023-01-07T07:39:29.655Z,96.60
2023-01-07T07:41:56.403Z,96.60
2023-01-07T07:44:23.197Z,96.60
2023-01-07T07:46:50.360Z,96.60
2023-01-07T07:49:17.179Z,96.60
2023-01-07T07:51:43.948Z,96.60
2023-01-07T07:54:10.758Z,96.60
2023-01-07T07:56:37.508Z,96.60
2023-01-07T07:59:04.270Z,96.60
2023-01-07T08:01:31.292Z,96.60
2023-01-07T08:03:58.164Z,96.60
2023-01-07T08:06:24.947Z,96.60
2023-01-07T08:08:51.777Z,96.60
2023-01-07T08:11:19.089Z,96.60
2023-01-07T08:13:45.803Z,96.60
2023-01-07T08:16:12.601Z,96.60
2023-01-07T08:18:39.976Z,96.60
2023-01-07T08:21:06.802Z,96.60
2023-01-07T08:23:34.786Z,96.60
2023-01-07T08:26:03.075Z,96.60
2023-01-07T08:28:31.354Z,96.60
2023-01-07T08:31:04.697Z,96.60
2023-01-07T08:33:37.364Z,96.60
2023-01-07T08:36:18.237Z,96.60
2023-01-07T08:38:53.795Z,96.60
2023-01-07T08:41:22.560Z,96.60
2023-01-07T08:43:50.251Z,96.60
2023-01-07T08:46:17.457Z,96.60
2023-01-07T08:48:44.272Z,96.60
2023-01-07T08:51:11.063Z,96.60
2023-01-07T08:53:37.892Z,96.60
2023-01-07T08:56:04.781Z,96.60
2023-01-07T08:58:31.793Z,96.60
2023-01-07T09:01:03.978Z,96.60
2023-01-07T09:03:30.818Z,96.10
2023-01-07T09:05:58.179Z,96.10
2023-01-07T09:08:25.019Z,95.90
2023-01-07T09:10:51.790Z,96.00
2023-01-07T09:13:19.745Z,95.80
2023-01-07T09:15:46.485Z,95.60
2023-01-07T09:18:15.671Z,95.30
2023-01-07T09:20:42.454Z,95.50
2023-01-07T09:23:09.219Z,95.20
2023-01-07T09:25:36.000Z,94.90
2023-01-07T09:28:02.767Z,95.10
2023-01-07T09:30:29.516Z,94.60
2023-01-07T09:32:56.264Z,95.20
2023-01-07T09:35:23.233Z,95.10
2023-01-07T09:37:50.129Z,94.60
2023-01-07T09:40:31.296Z,94.80
2023-01-07T09:43:10.403Z,93.30
2023-01-07T09:45:57.092Z,93.30
2023-01-07T09:48:36.938Z,93.60
2023-01-07T09:51:05.895Z,93.60
2023-01-07T09:53:51.707Z,93.20
2023-01-07T09:56:24.856Z,92.90
2023-01-07T09:58:52.015Z,93.00
2023-01-07T10:01:46.595Z,93.30
2023-01-07T10:04:36.365Z,92.80
2023-01-07T10:07:20.912Z,92.70
2023-01-07T10:10:08.913Z,92.90
2023-01-07T10:12:46.847Z,92.60
2023-01-07T10:15:31.490Z,92.80
2023-01-07T10:18:12.240Z,92.80
2023-01-07T10:20:55.886Z,92.70
2023-01-07T10:23:31.891Z,92.80
2023-01-07T10:26:01.105Z,93.20
2023-01-07T10:28:43.242Z,92.90
2023-01-07T10:31:23.906Z,92.80
2023-01-07T10:33:52.351Z,92.70
2023-01-07T10:36:28.835Z,93.10
2023-01-07T10:39:08.519Z,92.60
2023-01-07T10:42:05.755Z,92.40
2023-01-07T10:45:17.983Z,92.20
2023-01-07T10:47:57.194Z,92.40
2023-01-07T10:50:50.359Z,92.40
2023-01-07T10:53:44.199Z,92.10
2023-01-07T10:56:36.877Z,92.70
2023-01-07T10:59:05.324Z,92.30
2023-01-07T11:01:36.344Z,93.30
2023-01-07T11:04:05.577Z,92.70
2023-01-07T11:06:55.842Z,92.80
2023-01-07T11:09:36.789Z,93.00
2023-01-07T11:12:16.769Z,93.00
2023-01-07T11:14:44.576Z,93.30
2023-01-07T11:17:27.779Z,92.40
2023-01-07T11:19:54.537Z,92.30
2023-01-07T11:22:27.139Z,91.30
2023-01-07T11:24:55.377Z,91.40
2023-01-07T11:27:25.852Z,91.80
2023-01-07T11:30:23.098Z,92.00
2023-01-07T11:33:03.426Z,91.70
2023-01-07T11:35:30.627Z,91.90
2023-01-07T11:37:59.228Z,91.60
2023-01-07T11:40:32.275Z,92.10
2023-01-07T11:43:04.620Z,91.90
2023-01-07T11:46:19.480Z,91.70
2023-01-07T11:49:00.648Z,91.80
2023-01-07T11:51:38.139Z,91.80
2023-01-07T11:54:04.944Z,91.70
2023-01-07T11:56:34.011Z,91.70
2023-01-07T11:59:15.752Z,91.70
2023-01-07T12:01:51.360Z,91.70
2023-01-07T12:04:36.915Z,91.70
2023-01-07T12:07:13.542Z,91.40
2023-01-07T12:09:41.902Z,90.90
2023-01-07T12:12:31.786Z,91.60
2023-01-07T12:15:23.920Z,91.80
2023-01-07T12:18:09.720Z,91.90
2023-01-07T12:21:07.577Z,92.40
2023-01-07T12:24:02.399Z,92.60
2023-01-07T12:26:45.899Z,92.70
2023-01-07T12:29:36.048Z,93.10
2023-01-07T12:32:11.670Z,93.20
2023-01-07T12:35:14.819Z,93.20
2023-01-07T12:38:03.624Z,93.10
2023-01-07T12:40:40.120Z,93.10
2023-01-07T12:43:32.457Z,92.90
2023-01-07T12:46:04.422Z,92.80
2023-01-07T12:48:41.442Z,92.60
2023-01-07T12:51:26.495Z,92.10
2023-01-07T12:53:54.860Z,92.40
2023-01-07T12:56:27.246Z,92.00
2023-01-07T12:59:03.093Z,92.30
2023-01-07T13:01:38.928Z,92.30
2023-01-07T13:04:14.668Z,92.50
2023-01-07T13:06:44.895Z,92.30
2023-01-07T13:09:21.038Z,91.80
2023-01-07T13:12:42.437Z,92.00
2023-01-07T13:15:29.990Z,91.80
2023-01-07T13:17:58.455Z,91.80
2023-01-07T13:20:35.271Z,92.10
2023-01-07T13:23:05.228Z,91.90
2023-01-07T13:25:45.793Z,91.70
2023-01-07T13:28:42.136Z,91.50
2023-01-07T13:31:24.995Z,91.50
2023-01-07T13:34:38.113Z,91.50
2023-01-07T13:37:27.187Z,91.30
2023-01-07T13:40:03.035Z,91.00
2023-01-07T13:42:52.681Z,91.10
2023-01-07T13:45:27.290Z,90.50
2023-01-07T13:48:34.705Z,91.00
2023-01-07T13:51:03.832Z,91.10
2023-01-07T13:53:46.836Z,90.50
2023-01-07T13:56:19.381Z,90.90
2023-01-07T13:58:53.526Z,90.20
2023-01-07T14:01:25.670Z,90.00
2023-01-07T14:03:56.036Z,89.60
2023-01-07T14:06:23.807Z,89.40
2023-01-07T14:08:52.769Z,89.50
2023-01-07T14:11:36.376Z,89.80
2023-01-07T14:14:27.047Z,89.90
2023-01-07T14:17:08.069Z,89.40
2023-01-07T14:19:53.926Z,89.70
2023-01-07T14:23:00.613Z,89.90
2023-01-07T14:25:40.091Z,89.20
2023-01-07T14:28:44.169Z,89.40
2023-01-07T14:31:37.602Z,89.40
2023-01-07T14:34:25.598Z,89.50
2023-01-07T14:37:01.651Z,89.50
2023-01-07T14:39:36.807Z,90.30
2023-01-07T14:42:26.662Z,90.40
2023-01-07T14:44:53.589Z,90.30
2023-01-07T14:47:45.426Z,90.40
2023-01-07T14:50:38.328Z,91.10
2023-01-07T14:53:43.103Z,91.60
2023-01-07T14:56:31.519Z,91.20
2023-01-07T14:59:07.444Z,91.40
2023-01-07T15:01:55.980Z,91.60
2023-01-07T15:04:37.520Z,91.70
2023-01-07T15:07:05.251Z,91.90
2023-01-07T15:10:01.431Z,92.00
2023-01-07T15:12:50.929Z,92.40
2023-01-07T15:15:47.877Z,92.00
2023-01-07T15:18:15.775Z,92.10
2023-01-07T15:21:27.020Z,92.10
2023-01-07T15:24:12.287Z,92.20
2023-01-07T15:26:50.141Z,92.50
2023-01-07T15:29:31.761Z,92.40
2023-01-07T15:32:31.854Z,92.10
2023-01-07T15:34:58.668Z,92.40
2023-01-07T15:37:25.717Z,92.40
2023-01-07T15:39:57.701Z,92.50
2023-01-07T15:42:27.197Z,93.00
2023-01-07T15:44:56.789Z,93.20
2023-01-07T15:47:35.340Z,93.40
2023-01-07T15:50:28.277Z,93.60
2023-01-07T15:53:15.916Z,93.30
2023-01-07T15:55:51.894Z,93.30
2023-01-07T15:58:36.801Z,93.20
2023-01-07T16:01:04.675Z,93.30
2023-01-07T16:03:32.563Z,93.60
2023-01-07T16:06:01.889Z,93.60
2023-01-07T16:08:31.980Z,93.70
2023-01-07T16:11:23.352Z,93.50
2023-01-07T16:14:04.026Z,93.70
2023-01-07T16:16:32.289Z,93.30
2023-01-07T16:19:01.280Z,93.40
2023-01-07T16:21:41.308Z,93.20
2023-01-07T16:24:13.149Z,93.50
2023-01-07T16:26:53.155Z,93.60
2023-01-07T16:29:47.809Z,94.00
2023-01-07T16:32:15.496Z,93.70
2023-01-07T16:34:43.026Z,93.90
2023-01-07T16:37:15.695Z,93.90
2023-01-07T16:39:48.358Z,94.20
2023-01-07T16:42:20.975Z,94.20
2023-01-07T16:44:49.846Z,94.00
2023-01-07T16:47:28.458Z,94.00
2023-01-07T16:50:19.937Z,93.50
2023-01-07T16:52:52.107Z,92.90
2023-01-07T16:55:46.970Z,92.80
2023-01-07T16:58:26.764Z,93.00
2023-01-07T17:00:55.621Z,92.70
2023-01-07T17:03:24.270Z,93.40
2023-01-07T17:06:04.526Z,93.80
2023-01-07T17:08:32.678Z,94.00
2023-01-07T17:11:18.431Z,94.20
2023-01-07T17:13:45.224Z,94.80
2023-01-07T17:16:31.760Z,94.10
2023-01-07T17:19:23.464Z,94.30
2023-01-07T17:21:50.370Z,94.60
2023-01-07T17:24:29.371Z,94.70
2023-01-07T17:26:59.594Z,94.70
2023-01-07T17:29:34.371Z,94.50
2023-01-07T17:32:01.649Z,94.80
2023-01-07T17:34:28.589Z,94.80
2023-01-07T17:36:55.421Z,94.60
2023-01-07T17:39:22.193Z,95.00
2023-01-07T17:42:07.393Z,95.00
2023-01-07T17:44:34.117Z,94.60
2023-01-07T17:47:00.916Z,95.70
2023-01-07T17:49:27.613Z,96.10
2023-01-07T17:51:54.951Z,95.60
2023-01-07T17:54:24.458Z,96.10
2023-01-07T17:56:52.009Z,95.90
2023-01-07T17:59:21.867Z,96.40
2023-01-07T18:01:50.671Z,96.40
2023-01-07T18:04:18.180Z,96.60
2023-01-07T18:06:45.195Z,96.60
2023-01-07T18:09:13.548Z,96.60
2023-01-07T18:12:02.454Z,96.60
2023-01-07T18:14:29.266Z,96.60
2023-01-07T18:16:56.113Z,96.60
2023-01-07T18:19:22.823Z,96.60
2023-01-07T18:21:49.606Z,96.60
2023-01-07T18:24:19.539Z,96.60
2023-01-07T18:26:46.869Z,96.60
2023-01-07T18:29:14.110Z,96.60
2023-01-07T18:31:43.205Z,96.60
2023-01-07T18:34:13.017Z,96.60
2023-01-07T18:36:39.962Z,96.60
2023-01-07T18:39:09.851Z,96.60
2023-01-07T18:41:38.934Z,96.60
2023-01-07T18:44:05.926Z,96.60
2023-01-07T18:46:32.829Z,96.60
2023-01-07T18:48:59.876Z,96.60
2023-01-07T18:51:26.924Z,96.60
2023-01-07T18:53:53.648Z,96.60
2023-01-07T18:56:20.577Z,96.60
2023-01-07T18:58:48.074Z,96.60
2023-01-07T19:01:14.988Z,96.60
2023-01-07T19:03:42.182Z,96.60
2023-01-07T19:06:11.054Z,96.60
2023-01-07T19:08:38.739Z,96.60
2023-01-07T19:11:10.417Z,96.60
2023-01-07T19:13:37.308Z,96.60
2023-01-07T19:16:08.748Z,96.60
2023-01-07T19:18:36.070Z,96.60
2023-01-07T19:21:04.959Z,96.60
2023-01-07T19:23:31.979Z,96.60
2023-01-07T19:26:07.850Z,96.60
2023-01-07T19:28:34.697Z,96.60
2023-01-07T19:31:08.447Z,96.60
2023-01-07T19:33:35.848Z,96.60
2023-01-07T19:36:09.418Z,96.60
2023-01-07T19:38:45.024Z,96.60
2023-01-07T19:41:17.600Z,96.60
2023-01-07T19:43:46.320Z,96.60
2023-01-07T19:46:15.522Z,96.60
2023-01-07T19:48:42.906Z,96.60
2023-01-07T19:51:10.801Z,96.60
2023-01-07T19:53:38.036Z,96.60
2023-01-07T19:56:12.514Z,96.60
2023-01-07T19:58:39.845Z,96.60
2023-01-07T20:01:10.580Z,96.60
2023-01-07T20:03:38.179Z,96.60
2023-01-07T20:06:07.529Z,96.60
2023-01-07T20:08:34.332Z,96.60
2023-01-07T20:11:02.658Z,96.60
2023-01-07T20:13:33.677Z,96.60
2023-01-07T20:16:15.229Z,96.60
2023-01-07T20:18:47.834Z,96.60
2023-01-07T20:21:16.333Z,96.60
2023-01-07T20:23:43.509Z,96.60
2023-01-07T20:26:13.132Z,96.60
2023-01-07T20:28:40.501Z,96.60
2023-01-07T20:31:11.386Z,96.60
2023-01-07T20:33:38.259Z,96.60
2023-01-07T20:36:11.161Z,96.60
2023-01-07T20:38:38.960Z,96.60
2023-01-07T20:41:07.678Z,96.60
2023-01-07T20:43:35.691Z,96.60
2023-01-07T20:46:04.513Z,96.60
2023-01-07T20:48:31.624Z,96.60
2023-01-07T20:50:58.854Z,96.60
2023-01-07T20:53:28.781Z,96.60
2023-01-07T20:55:59.995Z,96.60
2023-01-07T20:58:30.786Z,96.60
2023-01-07T21:00:58.017Z,96.60
2023-01-07T21:03:25.591Z,96.60
2023-01-07T21:05:56.035Z,96.60
2023-01-07T21:08:24.559Z,96.60
2023-01-07T21:10:51.805Z,96.60
2023-01-07T21:13:19.459Z,96.60
2023-01-07T21:15:46.526Z,96.60
2023-01-07T21:18:13.532Z,96.60
2023-01-07T21:20:41.400Z,96.60
2023-01-07T21:23:08.708Z,96.60
2023-01-07T21:25:35.635Z,96.60
2023-01-07T21:28:03.545Z,96.60
2023-01-07T21:30:30.464Z,96.60
2023-01-07T21:32:59.120Z,96.60
2023-01-07T21:35:26.403Z,96.60
2023-01-07T21:37:55.390Z,96.60
2023-01-07T21:40:22.927Z,96.60
2023-01-07T21:42:49.767Z,96.60
2023-01-07T21:45:17.445Z,96.60
2023-01-07T21:47:44.292Z,96.60
2023-01-07T21:50:12.444Z,96.60
2023-01-07T21:52:39.261Z,96.60
2023-01-07T21:55:06.796Z,96.60
2023-01-07T21:57:36.298Z,96.60
2023-01-07T22:00:05.337Z,96.60
2023-01-07T22:02:38.924Z,96.60
2023-01-07T22:05:07.198Z,96.60
2023-01-07T22:07:34.435Z,96.60
2023-01-07T22:10:02.478Z,96.60
2023-01-07T22:12:29.294Z,96.60
2023-01-07T22:15:07.850Z,96.60
2023-01-07T22:17:35.133Z,96.60
2023-01-07T22:20:01.923Z,96.60
2023-01-07T22:22:28.685Z,96.60
2023-01-07T22:25:08.418Z,96.60
2023-01-07T22:27:48.516Z,96.60
2023-01-07T22:30:38.497Z,96.60
2023-01-07T22:33:12.028Z,96.60
2023-01-07T22:35:38.864Z,96.60
2023-01-07T22:38:06.132Z,96.60
2023-01-07T22:40:38.221Z,96.60
2023-01-07T22:43:09.761Z,96.60
2023-01-07T22:45:54.668Z,96.60
2023-01-07T22:48:28.298Z,96.60
2023-01-07T22:51:07.418Z,96.60
2023-01-07T22:53:34.635Z,96.60
2023-01-07T22:56:07.737Z,96.60
2023-01-07T22:58:43.901Z,96.60
2023-01-07T23:01:20.194Z,96.60
2023-01-07T23:03:54.918Z,96.60
2023-01-07T23:06:21.902Z,96.60
2023-01-07T23:08:48.695Z,96.60
2023-01-07T23:11:36.579Z,96.60
2023-01-07T23:14:10.160Z,96.60
2023-01-07T23:16:40.468Z,96.60
2023-01-07T23:19:10.912Z,96.60
2023-01-07T23:21:42.342Z,96.60
2023-01-07T23:24:10.427Z,96.60
2023-01-07T23:26:37.627Z,96.60
2023-01-07T23:29:05.187Z,96.60
2023-01-07T23:31:34.405Z,96.60
2023-01-07T23:34:01.863Z,96.60
2023-01-07T23:36:28.917Z,96.60
2023-01-07T23:38:55.920Z,96.60
2023-01-07T23:41:22.990Z,96.60
2023-01-07T23:43:50.206Z,96.60
2023-01-07T23:46:17.045Z,96.60
2023-01-07T23:48:51.046Z,96.60
2023-01-07T23:51:20.412Z,96.60
2023-01-07T23:53:47.541Z,96.60
2023-01-07T23:56:17.770Z,96.60
2023-01-07T23:58:44.515Z,96.60
